createdAt,value
2022-08-30T00:00:54.818Z,14.17
2022-08-30T00:02:56.280Z,14.11
2022-08-30T00:04:57.849Z,14.06
2022-08-30T00:09:00.486Z,14.31
2022-08-30T00:11:01.709Z,14.31
2022-08-30T00:13:02.995Z,14.31
2022-08-30T00:15:04.280Z,14.27
2022-08-30T00:17:05.615Z,14.17
2022-08-30T00:19:07.054Z,14.09
2022-08-30T00:21:08.395Z,14.03
2022-08-30T00:23:09.986Z,13.99
2022-08-30T00:25:11.714Z,13.85
2022-08-30T00:27:13.430Z,13.91
2022-08-30T00:29:14.818Z,13.93
2022-08-30T00:31:16.164Z,13.9
2022-08-30T00:33:17.175Z,13.88
2022-08-30T00:35:18.026Z,13.95
2022-08-30T00:37:19.149Z,13.85
2022-08-30T00:39:20.139Z,13.84
2022-08-30T00:41:21.901Z,13.82
2022-08-30T00:43:23.224Z,13.79
2022-08-30T00:45:25.053Z,13.78
2022-08-30T00:47:26.016Z,13.8
2022-08-30T00:49:27.255Z,13.8
2022-08-30T00:51:28.749Z,13.83
2022-08-30T00:53:30.638Z,14.06
2022-08-30T00:55:31.841Z,14.12
2022-08-30T00:57:33.476Z,14.16
2022-08-30T01:00:18.732Z,14.18
2022-08-30T01:02:20.118Z,14.12
2022-08-30T01:04:21.739Z,14.05
2022-08-30T01:06:23.434Z,13.91
2022-08-30T01:08:24.455Z,13.83
2022-08-30T01:10:25.586Z,13.83
2022-08-30T01:12:27.482Z,13.87
2022-08-30T01:14:28.868Z,13.81
2022-08-30T01:16:30.743Z,13.74
2022-08-30T01:18:32.470Z,13.74
2022-08-30T01:20:33.466Z,13.83
2022-08-30T01:22:35.335Z,13.92
2022-08-30T01:24:36.322Z,13.94
2022-08-30T01:26:37.610Z,13.88
2022-08-30T01:28:39.061Z,13.79
2022-08-30T01:30:41.012Z,13.72
2022-08-30T01:32:42.311Z,13.68
2022-08-30T01:34:43.426Z,13.65
2022-08-30T01:36:44.793Z,13.69
2022-08-30T01:38:46.105Z,13.72
2022-08-30T01:40:47.763Z,13.75
2022-08-30T01:42:49.101Z,13.72
2022-08-30T01:44:50.170Z,13.64
2022-08-30T01:46:51.406Z,13.55
2022-08-30T01:48:54.193Z,13.53
2022-08-30T01:50:53.509Z,13.51
2022-08-30T01:52:54.539Z,13.46
2022-08-30T01:54:56.388Z,13.44
2022-08-30T01:56:58.067Z,13.48
2022-08-30T01:59:02.784Z,13.51
2022-08-30T02:01:01.037Z,13.63
2022-08-30T02:03:02.751Z,13.57
2022-08-30T02:05:04.314Z,13.51
2022-08-30T02:07:05.935Z,13.45
2022-08-30T02:09:07.034Z,13.35
2022-08-30T02:11:08.008Z,13.31
2022-08-30T02:13:09.792Z,13.29
2022-08-30T02:15:11.209Z,13.25
2022-08-30T02:17:12.969Z,13.38
2022-08-30T02:19:14.598Z,13.5
2022-08-30T02:21:16.041Z,13.48
2022-08-30T02:23:17.183Z,13.52
2022-08-30T02:25:20.579Z,13.57
2022-08-30T02:27:19.790Z,13.58
2022-08-30T02:29:21.328Z,13.68
2022-08-30T02:31:22.733Z,13.75
2022-08-30T02:33:23.766Z,13.78
2022-08-30T02:35:24.747Z,13.73
2022-08-30T02:37:25.743Z,13.72
2022-08-30T02:39:27.093Z,13.53
2022-08-30T02:41:28.446Z,13.49
2022-08-30T02:43:30.150Z,13.47
2022-08-30T02:45:31.675Z,13.38
2022-08-30T02:47:32.516Z,13.31
2022-08-30T02:49:34.170Z,13.31
2022-08-30T02:51:34.588Z,13.29
2022-08-30T02:53:36.341Z,13.26
2022-08-30T02:55:38.013Z,13.26
2022-08-30T02:57:39.296Z,13.22
2022-08-30T02:59:41.158Z,13.17
2022-08-30T03:01:43.076Z,13.26
2022-08-30T03:03:44.705Z,13.28
2022-08-30T03:05:45.971Z,13.14
2022-08-30T03:07:55.487Z,13.06
2022-08-30T03:09:48.520Z,13.1
2022-08-30T03:11:50.394Z,13
2022-08-30T03:13:51.882Z,13.07
2022-08-30T03:15:53.588Z,13.15
2022-08-30T03:17:55.286Z,13.07
2022-08-30T03:19:56.939Z,13.01
2022-08-30T03:21:58.245Z,13.01
2022-08-30T03:23:59.925Z,12.93
2022-08-30T03:26:01.164Z,12.85
2022-08-30T03:28:02.740Z,12.85
2022-08-30T03:30:04.283Z,12.91
2022-08-30T03:32:05.529Z,12.99
2022-08-30T03:34:06.883Z,13.05
2022-08-30T03:36:08.278Z,13.01
2022-08-30T03:38:09.305Z,12.95
2022-08-30T03:40:10.609Z,13
2022-08-30T03:42:12.387Z,13.02
2022-08-30T03:44:13.496Z,12.98
2022-08-30T03:46:15.041Z,12.96
2022-08-30T03:48:16.409Z,12.87
2022-08-30T03:50:17.865Z,12.87
2022-08-30T03:52:19.296Z,12.8
2022-08-30T03:54:20.269Z,12.71
2022-08-30T03:56:21.365Z,12.79
2022-08-30T03:58:22.541Z,12.72
2022-08-30T04:00:23.792Z,12.74
2022-08-30T04:02:25.276Z,12.69
2022-08-30T04:04:26.227Z,12.49
2022-08-30T04:06:27.960Z,12.38
2022-08-30T04:08:29.024Z,12.33
2022-08-30T04:10:30.507Z,12.27
2022-08-30T04:12:32.143Z,12.2
2022-08-30T04:14:33.146Z,12.29
2022-08-30T04:16:34.204Z,12.31
2022-08-30T04:18:35.868Z,12.39
2022-08-30T04:20:37.287Z,12.33
2022-08-30T04:22:39.058Z,12.39
2022-08-30T04:24:40.123Z,12.39
2022-08-30T04:26:41.680Z,12.37
2022-08-30T04:28:43.475Z,12.32
2022-08-30T04:30:44.806Z,12.24
2022-08-30T04:32:46.489Z,12.17
2022-08-30T04:34:47.341Z,12.12
2022-08-30T04:36:49.238Z,12.08
2022-08-30T04:38:50.375Z,11.99
2022-08-30T04:40:51.596Z,11.98
2022-08-30T04:42:53.384Z,12.05
2022-08-30T04:44:54.778Z,12.1
2022-08-30T04:46:56.665Z,12.05
2022-08-30T04:48:58.154Z,12.1
2022-08-30T04:50:59.973Z,12.01
2022-08-30T04:53:01.130Z,12.05
2022-08-30T04:55:02.732Z,12.08
2022-08-30T04:57:04.263Z,12.22
2022-08-30T04:59:05.723Z,12.24
2022-08-30T05:01:07.212Z,12.21
2022-08-30T05:03:08.586Z,12.31
2022-08-30T05:05:10.146Z,12.46
2022-08-30T05:07:11.390Z,12.59
2022-08-30T05:09:12.452Z,12.75
2022-08-30T05:11:14.154Z,12.61
2022-08-30T05:13:15.236Z,12.64
2022-08-30T05:15:17.090Z,12.7
2022-08-30T05:17:18.836Z,12.65
2022-08-30T05:19:20.715Z,12.76
2022-08-30T05:21:21.738Z,12.68
2022-08-30T05:23:23.093Z,12.65
2022-08-30T05:25:24.731Z,12.77
2022-08-30T05:27:25.922Z,13.07
2022-08-30T05:29:27.530Z,13.3
2022-08-30T05:31:28.686Z,13.46
2022-08-30T05:33:29.663Z,13.43
2022-08-30T05:35:30.741Z,13.57
2022-08-30T05:37:31.915Z,14.03
2022-08-30T05:39:33.951Z,14.59
2022-08-30T05:41:34.602Z,15.02
2022-08-30T05:43:35.871Z,14.91
2022-08-30T05:45:37.072Z,14.6
2022-08-30T05:47:38.723Z,15.02
2022-08-30T05:49:40.161Z,15.71
2022-08-30T05:51:43.174Z,16.3
2022-08-30T05:53:42.538Z,16.6
2022-08-30T05:55:43.534Z,16.44
2022-08-30T05:57:44.794Z,16.59
2022-08-30T05:59:46.467Z,16.73
2022-08-30T06:01:48.077Z,16.87
2022-08-30T06:03:49.142Z,16.45
2022-08-30T06:05:50.526Z,15.66
2022-08-30T06:07:52.264Z,15.5
2022-08-30T06:09:53.291Z,15.8
2022-08-30T06:11:54.870Z,16.02
2022-08-30T06:13:55.953Z,16.11
2022-08-30T06:15:57.372Z,15.81
2022-08-30T06:17:59.028Z,15.55
2022-08-30T06:20:00.181Z,15.47
2022-08-30T06:22:01.692Z,15.28
2022-08-30T06:24:02.837Z,15.31
2022-08-30T06:26:03.798Z,15.91
2022-08-30T06:28:05.141Z,16.47
2022-08-30T06:30:06.663Z,16.19
2022-08-30T06:32:07.835Z,16.48
2022-08-30T06:34:09.569Z,16.41
2022-08-30T06:36:10.794Z,16.47
2022-08-30T06:38:11.743Z,17.17
2022-08-30T06:40:13.194Z,16.83
2022-08-30T06:42:14.279Z,16.59
2022-08-30T06:44:15.667Z,16.75
2022-08-30T06:46:17.319Z,16.86
2022-08-30T06:48:18.435Z,16.61
2022-08-30T06:50:19.922Z,16.49
2022-08-30T06:52:21.391Z,16.62
2022-08-30T06:54:22.852Z,16.97
2022-08-30T06:56:25.170Z,17.29
2022-08-30T06:58:25.378Z,17.72
2022-08-30T07:00:26.873Z,18.75
2022-08-30T07:02:28.224Z,18.87
2022-08-30T07:04:29.966Z,19.06
2022-08-30T07:06:31.359Z,18.34
2022-08-30T07:08:32.220Z,18.32
2022-08-30T07:10:33.623Z,18.75
2022-08-30T07:14:36.299Z,18.91
2022-08-30T07:16:37.378Z,19.07
2022-08-30T07:18:38.665Z,19.78
2022-08-30T07:20:40.911Z,19.89
2022-08-30T07:22:42.094Z,19.39
2022-08-30T07:24:43.094Z,19.53
2022-08-30T07:26:44.588Z,19.67
2022-08-30T07:30:47.660Z,19.43
2022-08-30T07:32:49.155Z,19.34
2022-08-30T07:34:50.906Z,19.4
2022-08-30T07:36:51.533Z,19.54
2022-08-30T07:38:52.859Z,19.93
2022-08-30T07:40:53.816Z,19.77
2022-08-30T07:42:55.191Z,19.46
2022-08-30T07:43:38.855Z,19.58
2022-08-30T07:45:40.896Z,19.5
2022-08-30T07:47:42.252Z,19.36
2022-08-30T07:49:43.080Z,19.36
2022-08-30T07:51:44.326Z,19.88
2022-08-30T07:53:45.297Z,20.79
2022-08-30T07:55:46.643Z,21.05
2022-08-30T07:57:48.211Z,21.06
2022-08-30T07:59:49.623Z,21.67
2022-08-30T08:01:50.690Z,21.39
2022-08-30T08:03:51.754Z,21.71
2022-08-30T08:05:53.499Z,21.43
2022-08-30T08:07:54.746Z,21.45
2022-08-30T08:09:56.378Z,21.46
2022-08-30T08:11:58.103Z,21.64
2022-08-30T08:13:59.530Z,22.04
2022-08-30T08:16:00.542Z,21.56
2022-08-30T08:18:01.496Z,22.36
2022-08-30T08:20:02.487Z,22
2022-08-30T08:22:19.852Z,21.78
2022-08-30T08:24:05.237Z,21.86
2022-08-30T08:26:06.244Z,22.11
2022-08-30T08:28:07.514Z,22.04
2022-08-30T08:30:09.013Z,21.67
2022-08-30T08:32:10.588Z,22.05
2022-08-30T08:34:12.091Z,22.45
2022-08-30T08:36:12.995Z,22.67
2022-08-30T08:38:13.888Z,22.62
2022-08-30T08:40:15.610Z,22.35
2022-08-30T08:42:16.540Z,22.23
2022-08-30T08:44:17.573Z,22.79
2022-08-30T08:46:19.215Z,22.94
2022-08-30T08:50:21.896Z,22.91
2022-08-30T08:52:23.029Z,23.13
2022-08-30T08:54:23.929Z,23.48
2022-08-30T08:56:24.806Z,23.22
2022-08-30T08:58:25.997Z,23.23
2022-08-30T09:00:26.846Z,23.16
2022-08-30T09:02:27.956Z,23.64
2022-08-30T09:04:29.348Z,23.83
2022-08-30T09:06:30.431Z,24.02
2022-08-30T09:08:31.958Z,23.8
2022-08-30T09:10:47.419Z,23.62
2022-08-30T09:12:34.138Z,23.73
2022-08-30T09:14:35.660Z,23.75
2022-08-30T09:16:37.027Z,23.81
2022-08-30T09:18:38.154Z,23.83
2022-08-30T09:20:39.121Z,24.05
2022-08-30T09:22:40.150Z,23.99
2022-08-30T09:24:41.017Z,24.14
2022-08-30T09:26:42.044Z,24.54
2022-08-30T09:28:43.675Z,24.37
2022-08-30T09:30:44.922Z,24.62
2022-08-30T09:32:45.724Z,24.28
2022-08-30T09:34:46.889Z,24.45
2022-08-30T09:36:48.221Z,24.17
2022-08-30T09:38:49.838Z,24.27
2022-08-30T09:40:51.532Z,24.38
2022-08-30T09:42:53.262Z,24.39
2022-08-30T09:44:54.277Z,25.02
2022-08-30T09:46:55.154Z,25.25
2022-08-30T09:48:56.123Z,24.86
2022-08-30T09:50:57.602Z,24.67
2022-08-30T09:52:59.176Z,25.02
2022-08-30T09:55:00.851Z,25.22
2022-08-30T09:57:01.794Z,24.81
2022-08-30T09:59:03.033Z,25.32
2022-08-30T10:01:04.707Z,25.01
2022-08-30T10:03:06.356Z,24.74
2022-08-30T10:05:07.543Z,25.24
2022-08-30T10:07:09.262Z,25.26
2022-08-30T10:09:11.063Z,25.57
2022-08-30T10:11:12.038Z,25.67
2022-08-30T10:13:12.911Z,25.32
2022-08-30T10:15:14.341Z,25.62
2022-08-30T10:17:15.801Z,25.24
2022-08-30T10:19:16.896Z,25.65
2022-08-30T10:21:19.284Z,25.34
2022-08-30T10:23:19.662Z,24.94
2022-08-30T10:25:21.228Z,25.69
2022-08-30T10:27:22.683Z,25.55
2022-08-30T10:29:23.834Z,25.84
2022-08-30T10:31:25.267Z,25.61
2022-08-30T10:33:26.812Z,25.87
2022-08-30T10:35:28.134Z,26.18
2022-08-30T10:37:29.132Z,25.65
2022-08-30T10:39:30.957Z,25.78
2022-08-30T10:41:31.420Z,25.95
2022-08-30T10:43:32.915Z,26.23
2022-08-30T10:45:33.956Z,26.76
2022-08-30T10:47:35.573Z,26.67
2022-08-30T10:49:37.274Z,26.53
2022-08-30T10:51:38.521Z,27.08
2022-08-30T10:53:39.793Z,26.68
2022-08-30T10:55:41.079Z,26.59
2022-08-30T10:57:43.040Z,27.2
2022-08-30T10:59:44.111Z,27.01
2022-08-30T11:01:46.247Z,27.59
2022-08-30T11:03:46.754Z,27.32
2022-08-30T11:05:47.557Z,27.6
2022-08-30T11:07:48.704Z,26.94
2022-08-30T11:11:51.939Z,27.07
2022-08-30T11:13:56.947Z,27.16
2022-08-30T11:15:54.648Z,26.4
2022-08-30T11:17:55.744Z,26.83
2022-08-30T11:19:56.940Z,27.45
2022-08-30T11:21:58.562Z,27.4
2022-08-30T11:23:59.509Z,27.22
2022-08-30T11:26:00.345Z,27.29
2022-08-30T11:28:02.046Z,27.32
2022-08-30T11:30:03.146Z,27.77
2022-08-30T11:32:04.478Z,27.49
2022-08-30T11:34:05.634Z,27.19
2022-08-30T11:36:06.448Z,27.39
2022-08-30T11:38:07.696Z,27.53
2022-08-30T11:40:13.201Z,27.34
2022-08-30T11:42:11.051Z,27.99
2022-08-30T11:44:12.257Z,27.98
2022-08-30T11:46:14.542Z,27.38
2022-08-30T11:48:14.679Z,27.61
2022-08-30T11:50:15.861Z,28.19
2022-08-30T11:52:26.798Z,28.76
2022-08-30T11:54:19.185Z,28.47
2022-08-30T11:56:20.459Z,28.61
2022-08-30T11:58:22.070Z,27.48
2022-08-30T12:00:23.576Z,28.12
2022-08-30T12:02:24.835Z,28.51
2022-08-30T12:04:26.196Z,28.09
2022-08-30T12:06:26.971Z,28.03
2022-08-30T12:08:28.408Z,28.09
2022-08-30T12:10:29.933Z,28.09
2022-08-30T12:12:31.193Z,29.22
2022-08-30T12:14:31.942Z,28.91
2022-08-30T12:16:33.590Z,29.34
2022-08-30T12:18:35.066Z,28.43
2022-08-30T12:20:36.438Z,28.86
2022-08-30T12:22:37.651Z,29.18
2022-08-30T12:24:38.618Z,28.43
2022-08-30T12:26:39.509Z,28.49
2022-08-30T12:28:42.058Z,28.59
2022-08-30T12:30:41.729Z,28.86
2022-08-30T12:32:43.266Z,28.59
2022-08-30T12:34:44.609Z,28.42
2022-08-30T12:36:45.933Z,28.16
2022-08-30T12:38:47.526Z,28.03
2022-08-30T12:40:48.980Z,28.31
2022-08-30T12:42:49.937Z,28.42
2022-08-30T12:44:51.494Z,29.17
2022-08-30T12:46:57.221Z,28.71
2022-08-30T12:48:54.881Z,28.97
2022-08-30T12:50:56.145Z,29.52
2022-08-30T12:52:57.922Z,29.37
2022-08-30T12:54:59.419Z,29.28
2022-08-30T12:57:10.220Z,28.66
2022-08-30T12:59:02.608Z,28.14
2022-08-30T13:01:03.730Z,28.86
2022-08-30T13:03:15.962Z,28.22
2022-08-30T13:05:06.112Z,28.73
2022-08-30T13:07:06.906Z,29.01
2022-08-30T13:09:08.346Z,29.39
2022-08-30T13:11:09.263Z,29.39
2022-08-30T13:13:10.630Z,29.37
2022-08-30T13:15:11.765Z,29.84
2022-08-30T13:17:13.231Z,29.93
2022-08-30T13:19:14.315Z,29.65
2022-08-30T13:21:15.593Z,29.76
2022-08-30T13:23:16.768Z,29.73
2022-08-30T13:27:19.247Z,28.93
2022-08-30T13:29:20.614Z,28.93
2022-08-30T13:31:22.418Z,29.29
2022-08-30T13:33:22.837Z,29.26
2022-08-30T13:35:24.180Z,28.82
2022-08-30T13:37:50.893Z,28.05
2022-08-30T13:39:26.516Z,28.58
2022-08-30T13:41:30.071Z,28.81
2022-08-30T13:43:29.075Z,29
2022-08-30T13:45:43.091Z,28.87
2022-08-30T13:47:32.943Z,28.91
2022-08-30T13:49:45.215Z,28.54
2022-08-30T13:51:33.967Z,28.76
2022-08-30T13:53:54.105Z,28.74
2022-08-30T13:55:36.974Z,28.91
2022-08-30T13:57:54.283Z,29.13
2022-08-30T13:59:39.115Z,29.41
2022-08-30T14:02:08.234Z,29.66
2022-08-30T14:04:13.073Z,29.1
2022-08-30T14:05:54.830Z,29.51
2022-08-30T14:07:45.009Z,29.34
2022-08-30T14:09:45.295Z,29.05
2022-08-30T14:11:46.374Z,28.75
2022-08-30T14:14:15.056Z,28.26
2022-08-30T14:15:48.587Z,28.27
2022-08-30T14:17:49.897Z,28.37
2022-08-30T14:19:50.675Z,28.15
2022-08-30T14:21:52.740Z,28.78
2022-08-30T14:23:54.250Z,28.43
2022-08-30T14:25:55.121Z,28.33
2022-08-30T14:27:56.219Z,28.7
2022-08-30T14:28:39.836Z,28.81
2022-08-30T14:30:41.418Z,28.88
2022-08-30T14:32:42.332Z,29.53
2022-08-30T14:34:43.373Z,29.35
2022-08-30T14:36:44.647Z,29.39
2022-08-30T14:38:45.693Z,28.98
2022-08-30T14:40:46.990Z,29.27
2022-08-30T14:42:48.285Z,29.41
2022-08-30T14:44:56.040Z,29.67
2022-08-30T14:46:51.101Z,29.76
2022-08-30T14:48:51.745Z,29.91
2022-08-30T14:50:52.599Z,29.4
2022-08-30T14:52:53.790Z,28.89
2022-08-30T14:54:58.082Z,28.55
2022-08-30T14:56:56.211Z,28.78
2022-08-30T14:58:57.585Z,28.35
2022-08-30T15:00:58.954Z,27.63
2022-08-30T15:03:01.118Z,27.57
2022-08-30T15:05:02.908Z,27.87
2022-08-30T15:07:03.789Z,28.16
2022-08-30T15:09:05.260Z,28.11
2022-08-30T15:11:06.333Z,28.15
2022-08-30T15:13:07.370Z,28.06
2022-08-30T15:15:08.321Z,27.8
2022-08-30T15:17:09.532Z,27.81
2022-08-30T15:19:10.618Z,27.88
2022-08-30T15:21:11.525Z,28.36
2022-08-30T15:23:12.817Z,28.32
2022-08-30T15:25:13.790Z,28.74
2022-08-30T15:27:15.046Z,28.58
2022-08-30T15:29:16.722Z,28.55
2022-08-30T15:31:17.995Z,28.75
2022-08-30T15:33:19.501Z,28.81
2022-08-30T15:35:20.959Z,29.06
2022-08-30T15:37:21.838Z,28.82
2022-08-30T15:39:24.345Z,28.57
2022-08-30T15:41:24.423Z,28.69
2022-08-30T15:43:26.127Z,28.83
2022-08-30T15:45:27.147Z,28.63
2022-08-30T15:47:28.038Z,28.82
2022-08-30T15:49:29.529Z,28.83
2022-08-30T15:51:41.305Z,28.24
2022-08-30T15:53:32.224Z,28.71
2022-08-30T15:55:33.100Z,28.32
2022-08-30T15:57:34.751Z,28.09
2022-08-30T15:59:35.720Z,28.06
2022-08-30T16:01:37.440Z,28.22
2022-08-30T16:03:38.146Z,28.23
2022-08-30T16:05:39.435Z,28.04
2022-08-30T16:07:41.034Z,27.88
2022-08-30T16:09:41.585Z,28.44
2022-08-30T16:11:43.215Z,28.35
2022-08-30T16:13:47.995Z,28.4
2022-08-30T16:15:45.494Z,28.15
2022-08-30T16:17:46.958Z,27.9
2022-08-30T16:19:47.979Z,27.93
2022-08-30T16:21:49.535Z,28.19
2022-08-30T16:23:50.510Z,27.98
2022-08-30T16:25:51.733Z,28.1
2022-08-30T16:27:53.164Z,27.96
2022-08-30T16:29:54.697Z,27.85
2022-08-30T16:31:56.016Z,27.61
2022-08-30T16:33:57.392Z,27.52
2022-08-30T16:35:58.067Z,27.52
2022-08-30T16:37:59.333Z,27.29
2022-08-30T16:40:00.261Z,27.05
2022-08-30T16:42:01.273Z,27.05
2022-08-30T16:44:03.745Z,26.9
2022-08-30T16:46:03.461Z,26.87
2022-08-30T16:48:05.100Z,26.83
2022-08-30T16:50:05.981Z,26.76
2022-08-30T16:52:06.863Z,26.54
2022-08-30T16:54:08.261Z,26.35
2022-08-30T16:56:09.477Z,26.26
2022-08-30T16:58:10.807Z,26.24
2022-08-30T17:00:13.151Z,26.19
2022-08-30T17:02:12.851Z,26.24
2022-08-30T17:04:18.197Z,26.24
2022-08-30T17:06:15.518Z,26.19
2022-08-30T17:08:17.017Z,26.25
2022-08-30T17:10:18.465Z,26.11
2022-08-30T17:12:19.683Z,26.02
2022-08-30T17:14:28.315Z,25.96
2022-08-30T17:16:27.734Z,25.83
2022-08-30T17:18:24.111Z,25.82
2022-08-30T17:20:25.368Z,25.74
2022-08-30T17:22:26.700Z,25.66
2022-08-30T17:24:27.671Z,25.6
2022-08-30T17:26:29.268Z,25.54
2022-08-30T17:28:30.191Z,25.41
2022-08-30T17:30:31.805Z,25.35
2022-08-30T17:32:33.047Z,25.33
2022-08-30T17:34:34.704Z,25.29
2022-08-30T17:36:36.348Z,25.26
2022-08-30T17:38:36.582Z,25.16
2022-08-30T17:42:39.477Z,24.98
2022-08-30T17:44:42.195Z,24.87
2022-08-30T17:46:41.490Z,24.75
2022-08-30T17:48:42.610Z,24.62
2022-08-30T17:50:43.528Z,24.57
2022-08-30T17:52:45.259Z,24.52
2022-08-30T17:54:46.881Z,24.34
2022-08-30T17:58:49.802Z,24.28
2022-08-30T18:00:51.254Z,24.17
2022-08-30T18:02:52.535Z,24.11
2022-08-30T18:04:53.786Z,24.03
2022-08-30T18:06:55.076Z,24.13
2022-08-30T18:08:56.871Z,24.04
2022-08-30T18:10:57.747Z,23.87
2022-08-30T18:12:59.301Z,23.77
2022-08-30T18:15:00.516Z,23.76
2022-08-30T18:17:01.675Z,23.68
2022-08-30T18:19:02.711Z,23.59
2022-08-30T18:21:04.392Z,23.46
2022-08-30T18:23:05.582Z,23.35
2022-08-30T18:25:06.502Z,23.24
2022-08-30T18:27:07.704Z,23.21
2022-08-30T18:29:08.766Z,23.06
2022-08-30T18:31:09.874Z,22.89
2022-08-30T18:33:10.731Z,22.82
2022-08-30T18:35:11.832Z,22.87
2022-08-30T18:37:12.803Z,22.88
2022-08-30T18:39:13.783Z,22.84
2022-08-30T18:41:15.417Z,22.81
2022-08-30T18:43:16.449Z,22.69
2022-08-30T18:45:18.155Z,22.63
2022-08-30T18:47:23.091Z,22.55
2022-08-30T18:49:20.890Z,22.54
2022-08-30T18:51:22.371Z,22.4
2022-08-30T18:53:24.752Z,22.33
2022-08-30T18:55:24.764Z,22.4
2022-08-30T18:57:26.126Z,22.42
2022-08-30T18:59:31.548Z,22.4
2022-08-30T19:01:28.921Z,22.26
2022-08-30T19:03:33.054Z,22.3
2022-08-30T19:05:31.662Z,22.17
2022-08-30T19:07:34.245Z,22.1
2022-08-30T19:09:34.546Z,22.14
2022-08-30T19:11:35.957Z,21.87
2022-08-30T19:13:36.865Z,21.53
2022-08-30T19:15:37.972Z,21.56
2022-08-30T19:17:39.386Z,21.65
2022-08-30T19:19:46.131Z,21.74
2022-08-30T19:21:42.106Z,21.81
2022-08-30T19:23:43.564Z,21.83
2022-08-30T19:25:44.420Z,21.58
2022-08-30T19:27:45.377Z,20.86
2022-08-30T19:29:46.833Z,20.61
2022-08-30T19:31:48.606Z,20.55
2022-08-30T19:33:50.071Z,20.79
2022-08-30T19:35:51.709Z,20.85
2022-08-30T19:37:53.403Z,21.16
2022-08-30T19:39:55.014Z,21.38
2022-08-30T19:41:56.026Z,21.37
2022-08-30T19:43:57.807Z,21.49
2022-08-30T19:45:59.173Z,21.43
2022-08-30T19:48:00.619Z,21.42
2022-08-30T19:50:02.183Z,21.37
2022-08-30T19:52:03.872Z,21.49
2022-08-30T19:54:05.561Z,21.34
2022-08-30T19:56:06.615Z,21.32
2022-08-30T19:58:07.559Z,21.31
2022-08-30T20:00:08.573Z,21.28
2022-08-30T20:02:09.828Z,21.27
2022-08-30T20:04:10.712Z,21.09
2022-08-30T20:06:11.643Z,21.08
2022-08-30T20:08:13.325Z,20.89
2022-08-30T20:10:15.040Z,20.87
2022-08-30T20:12:15.949Z,20.81
2022-08-30T20:14:17.111Z,20.87
2022-08-30T20:16:18.447Z,20.84
2022-08-30T20:18:19.469Z,20.81
2022-08-30T20:20:20.558Z,20.75
2022-08-30T20:22:22.299Z,20.6
2022-08-30T20:24:24.905Z,20.56
2022-08-30T20:26:27.428Z,20.4
2022-08-30T20:28:25.507Z,20.46
2022-08-30T20:30:27.275Z,20.48
2022-08-30T20:32:28.545Z,20.44
2022-08-30T20:34:30.179Z,20.34
2022-08-30T20:36:32.005Z,20.28
2022-08-30T20:38:33.524Z,19.99
2022-08-30T20:40:34.631Z,19.82
2022-08-30T20:42:35.820Z,19.71
2022-08-30T20:44:36.942Z,19.59
2022-08-30T20:46:38.018Z,19.35
2022-08-30T20:48:39.005Z,19.28
2022-08-30T20:50:40.561Z,19.23
2022-08-30T20:52:42.143Z,19.1
2022-08-30T20:54:43.796Z,19.09
2022-08-30T20:56:44.742Z,18.93
2022-08-30T20:58:45.787Z,18.86
2022-08-30T21:00:46.905Z,18.92
2022-08-30T21:04:49.404Z,19.1
2022-08-30T21:06:51.241Z,19.01
2022-08-30T21:08:52.641Z,18.81
2022-08-30T21:10:54.516Z,18.71
2022-08-30T21:12:56.190Z,18.84
2022-08-30T21:14:57.594Z,18.94
2022-08-30T21:15:41.359Z,19.07
2022-08-30T21:17:42.321Z,19.14
2022-08-30T21:19:44.049Z,19.56
2022-08-30T21:21:44.949Z,19.37
2022-08-30T21:23:46.152Z,19.22
2022-08-30T21:25:47.748Z,19.06
2022-08-30T21:27:48.662Z,18.82
2022-08-30T21:29:49.731Z,18.64
2022-08-30T21:31:51.280Z,18.52
2022-08-30T21:33:52.168Z,18.36
2022-08-30T21:35:53.388Z,18.32
2022-08-30T21:37:54.283Z,18.2
2022-08-30T21:39:56.033Z,18.3
2022-08-30T21:41:57.716Z,18.12
2022-08-30T21:43:59.386Z,18.06
2022-08-30T21:46:00.716Z,17.91
2022-08-30T21:48:02.041Z,17.81
2022-08-30T21:50:03.637Z,17.77
2022-08-30T21:52:05.446Z,17.79
2022-08-30T21:54:07.111Z,17.7
2022-08-30T21:58:10.297Z,17.57
2022-08-30T22:00:11.416Z,17.53
2022-08-30T22:02:13.111Z,17.66
2022-08-30T22:04:14.399Z,17.56
2022-08-30T22:06:16.043Z,17.48
2022-08-30T22:08:17.823Z,17.71
2022-08-30T22:10:18.738Z,17.77
2022-08-30T22:12:20.199Z,17.79
2022-08-30T22:14:21.878Z,17.93
2022-08-30T22:16:23.394Z,17.95
2022-08-30T22:18:24.624Z,17.98
2022-08-30T22:20:26.503Z,18.01
2022-08-30T22:22:28.388Z,17.97
2022-08-30T22:24:32.172Z,17.84
2022-08-30T22:26:31.335Z,17.86
2022-08-30T22:28:33.324Z,17.8
2022-08-30T22:30:34.227Z,17.84
2022-08-30T22:32:35.558Z,17.86
2022-08-30T22:34:37.255Z,17.85
2022-08-30T22:36:38.690Z,17.96
2022-08-30T22:38:40.324Z,17.91
2022-08-30T22:40:41.515Z,17.86
2022-08-30T22:42:42.576Z,18.13
2022-08-30T22:44:43.978Z,18.01
2022-08-30T22:46:45.005Z,17.97
2022-08-30T22:48:46.163Z,17.85
2022-08-30T22:50:47.426Z,17.75
2022-08-30T22:52:49.283Z,17.56
2022-08-30T22:54:51.083Z,17.71
2022-08-30T22:56:52.083Z,17.86
2022-08-30T22:58:53.689Z,17.8
2022-08-30T23:00:55.665Z,17.75
2022-08-30T23:02:57.134Z,17.87
2022-08-30T23:04:58.650Z,17.83
2022-08-30T23:06:59.904Z,17.92
2022-08-30T23:09:01.293Z,17.61
2022-08-30T23:11:02.732Z,17.57
2022-08-30T23:13:03.880Z,17.48
2022-08-30T23:15:04.830Z,17.48
2022-08-30T23:17:06.550Z,17.52
2022-08-30T23:19:07.494Z,17.75
2022-08-30T23:21:10.916Z,17.66
2022-08-30T23:23:10.317Z,17.61
2022-08-30T23:25:12.714Z,17.6
2022-08-30T23:27:12.660Z,17.62
2022-08-30T23:29:14.169Z,17.64
2022-08-30T23:31:15.284Z,17.52
2022-08-30T23:33:16.411Z,17.53
2022-08-30T23:35:17.687Z,17.59
2022-08-30T23:37:19.487Z,17.63
2022-08-30T23:39:21.178Z,17.6
2022-08-30T23:41:22.385Z,17.7
2022-08-30T23:43:23.808Z,17.66
2022-08-30T23:45:25.278Z,17.57
2022-08-30T23:47:26.317Z,17.5
2022-08-30T23:49:27.490Z,17.53
2022-08-30T23:51:28.419Z,17.54
2022-08-30T23:53:30.176Z,17.67
2022-08-30T23:55:31.219Z,17.67
2022-08-30T23:57:32.685Z,17.68
2022-08-30T23:59:34.065Z,17.6
